CDT,Max TemperatureF,Mean TemperatureF,Min TemperatureF,Max Dew PointF,MeanDew PointF,Min DewpointF,Max Humidity, Mean Humidity, Min Humidity, Max Sea Level PressureIn, Mean Sea Level PressureIn, Min Sea Level PressureIn, Max VisibilityMiles, Mean VisibilityMiles, Min VisibilityMiles, Max Wind SpeedMPH, Mean Wind SpeedMPH, Max Gust SpeedMPH,PrecipitationIn, CloudCover, Events, WindDirDegrees
2012-10-1,70,62,52,51,44,38,78,55,37,,,,,,,22,10,,0.00,,,335
2012-10-2,78,62,45,45,40,34,68,51,30,,,,,,,16,7,,0.00,,,197
2012-10-3,87,69,51,49,46,42,76,51,25,,,,,,,22,9,,0.00,,,187
2012-10-4,68,55,42,49,30,24,65,45,33,,,,,,,25,14,,0.00,,,17
2012-10-5,51,45,39,31,29,25,70,55,42,,,,,,,17,9,,0.00,,,77
2012-10-6,39,38,36,32,30,27,80,72,62,,,,,,,12,8,,0.00,,,96
2012-10-7,53,44,36,31,29,26,79,61,38,,,,,,,13,8,,0.00,,,181
2012-10-8,70,54,37,35,30,25,65,46,25,,,,,,,14,9,,0.00,,,211
2012-10-9,71,57,43,38,31,21,68,43,16,,,,,,,21,12,,0.00,,,334
2012-10-10,66,51,36,40,34,29,77,57,32,,,,,,,20,7,,0.00,,,203
2012-10-11,89,67,45,46,40,36,74,47,16,,,,,,,18,11,,0.00,,,220
2012-10-12,63,52,42,50,35,27,78,55,44,,,,,,,23,11,,0.00,,,73
2012-10-13,69,62,55,57,44,32,88,58,25,,,,,,,25,12,,0.00,,,269
2012-10-14,71,60,48,41,39,36,69,46,29,,,,,,,16,11,,0.00,,,314
2012-10-15,80,63,46,46,38,34,66,43,21,,,,,,,14,8,,0.00,,,207
2012-10-16,77,64,52,41,37,33,57,40,25,,,,,,,13,9,,0.00,,,241
2012-10-17,64,54,45,36,29,22,49,35,21,,,,,,,23,13,,0.00,,,337
2012-10-18,61,48,36,28,23,20,65,40,26,,,,,,,13,5,,0.00,,,299
2012-10-19,75,57,39,34,27,18,53,36,19,,,,,,,12,7,,0.00,,,230
2012-10-20,82,64,46,39,32,26,50,35,16,,,,,,,14,8,,0.00,,,198
2012-10-21,84,66,48,32,29,25,52,28,13,,,,,,,14,8,,0.00,,,290
2012-10-22,69,56,44,48,39,30,69,55,41,,,,,,,16,6,,0.00,,,10
2012-10-23,87,68,48,40,31,26,72,28,13,,,,,,,21,11,,0.00,,,225
2012-10-24,66,57,48,44,35,25,69,44,23,,,,,,,17,10,,0.00,,,236
2012-10-25,50,43,36,40,27,21,76,57,44,,,,,,,28,17,,0.00,,,6
2012-10-26,41,34,27,26,23,20,78,63,51,,,,,,,10,7,,0.00,,,40
2012-10-27,55,39,23,26,21,14,78,55,27,,,,,,,18,8,,0.00,,,150
2012-10-28,62,46,30,25,22,20,72,44,22,,,,,,,18,7,,0.00,,,218
2012-10-29,70,52,35,33,26,19,57,40,24,,,,,,,12,8,,0.00,,,191
2012-10-30,75,60,44,35,30,25,48,34,21,,,,,,,17,9,,0.00,,,303
2012-10-31,77,60,44,40,33,28,58,39,19,,,,,,,10,6,,0.00,,,271